Time;durP1;ratioP1;P1;durP2;ratioP2;P2;SDS_P1;SDS_P2;PMS_P1;PMS_P2;Temp;Humidity;BMP_temperature;BMP_pressure;BME280_temperature;BME280_humidity;BME280_pressure;Samples;Min_cycle;Max_cycle;Signal;HPM_P1;HPM_P2
2022/05/27 00:00:42;;;;;;;5.35;2.97;;;;;;;12.89;100.00;96952.06;5062429;28;20076;-51
2022/05/27 00:03:11;;;;;;;3.75;2.95;;;;;;;12.85;100.00;96948.88;5059351;28;20068;-51
2022/05/27 00:05:40;;;;;;;3.20;2.83;;;;;;;12.81;100.00;96944.84;5060085;28;20060;-52
2022/05/27 00:08:09;;;;;;;5.65;2.90;;;;;;;12.82;100.00;96943.88;5060565;28;20068;-53
2022/05/27 00:10:38;;;;;;;3.00;2.80;;;;;;;12.80;100.00;96946.69;5058523;28;20439;-54
2022/05/27 00:13:07;;;;;;;6.22;2.97;;;;;;;12.70;100.00;96939.75;5062602;28;20380;-52
2022/05/27 00:15:35;;;;;;;3.30;2.97;;;;;;;12.72;100.00;96935.13;5051963;28;20140;-52
2022/05/27 00:18:05;;;;;;;3.85;3.00;;;;;;;12.68;100.00;96933.78;5062233;28;20060;-51
2022/05/27 00:20:35;;;;;;;4.88;2.75;;;;;;;12.68;100.00;96931.94;5061604;28;20073;-52
2022/05/27 00:23:03;;;;;;;4.53;2.97;;;;;;;12.68;100.00;96929.31;5058796;28;20064;-57
2022/05/27 00:25:32;;;;;;;3.78;3.10;;;;;;;12.70;100.00;96926.53;5058385;28;20079;-52
2022/05/27 00:28:00;;;;;;;4.43;2.92;;;;;;;12.70;100.00;96923.88;5060497;28;20076;-54
2022/05/27 00:30:29;;;;;;;3.42;3.08;;;;;;;12.69;100.00;96922.19;5060916;28;20075;-48
2022/05/27 00:32:57;;;;;;;4.55;3.17;;;;;;;12.70;100.00;96924.72;5060735;28;20101;-49
2022/05/27 00:35:27;;;;;;;5.60;3.08;;;;;;;12.69;100.00;96916.91;5059156;28;20056;-54
2022/05/27 00:37:56;;;;;;;4.90;3.22;;;;;;;12.77;100.00;96917.03;5060544;28;20056;-54
2022/05/27 00:40:25;;;;;;;7.00;3.13;;;;;;;12.74;100.00;96922.59;5060566;28;20546;-52
2022/05/27 00:42:54;;;;;;;3.80;3.30;;;;;;;12.70;100.00;96927.34;5058693;28;20083;-53
2022/05/27 00:45:24;;;;;;;6.20;3.00;;;;;;;12.75;100.00;96927.75;5061413;28;20447;-51
2022/05/27 00:47:54;;;;;;;3.38;2.80;;;;;;;12.59;100.00;96928.38;5059460;28;20079;-54
2022/05/27 00:50:26;;;;;;;4.78;3.15;;;;;;;12.48;100.00;96917.97;5060756;28;20064;-55
2022/05/27 00:52:56;;;;;;;3.67;2.83;;;;;;;12.56;100.00;96918.09;5060881;28;20068;-49
2022/05/27 00:55:28;;;;;;;4.10;2.95;;;;;;;12.62;100.00;96919.31;5059930;28;20056;-48
2022/05/27 00:57:59;;;;;;;5.32;3.05;;;;;;;12.57;100.00;96925.03;5058174;28;20091;-53
2022/05/27 01:00:27;;;;;;;4.05;3.20;;;;;;;12.58;100.00;96926.69;5060382;28;20072;-51
2022/05/27 01:02:56;;;;;;;3.92;3.22;;;;;;;12.61;100.00;96922.09;5056810;28;20075;-50
2022/05/27 01:05:25;;;;;;;4.60;3.35;;;;;;;12.56;100.00;96915.44;5058245;28;20471;-50
2022/05/27 01:07:56;;;;;;;4.78;3.40;;;;;;;12.49;100.00;96914.34;5059058;28;20067;-54
2022/05/27 01:10:25;;;;;;;5.07;3.50;;;;;;;12.53;100.00;96918.38;5057118;28;20056;-54
2022/05/27 01:13:03;;;;;;;4.78;3.28;;;;;;;12.45;100.00;96912.13;5057077;28;20080;-57
2022/05/27 01:15:38;;;;;;;6.32;3.40;;;;;;;12.41;100.00;96914.22;5056893;28;20636;-50
2022/05/27 01:20:18;;;;;;;3.88;3.47;;;;;;;12.42;100.00;96913.28;5059229;28;20079;-50
2022/05/27 01:21:22;;;;;;;4.03;3.22;;;;;;;12.44;100.00;96913.13;5056254;28;20075;-55
2022/05/27 01:24:23;;;;;;;5.35;3.75;;;;;;;12.43;100.00;96911.47;5060397;28;20084;-52
2022/05/27 01:27:42;;;;;;;6.85;4.35;;;;;;;12.41;100.00;96914.22;5060144;28;20067;-50
2022/05/27 01:30:23;;;;;;;4.53;3.88;;;;;;;12.47;100.00;96921.59;5007479;28;20798;-54
2022/05/27 01:33:00;;;;;;;4.50;4.10;;;;;;;12.48;100.00;96907.38;5058927;28;20068;-53
2022/05/27 01:35:33;;;;;;;5.55;4.10;;;;;;;12.49;100.00;96906.44;5060525;28;20049;-51
2022/05/27 01:38:06;;;;;;;11.68;3.90;;;;;;;12.46;100.00;96906.72;5061695;28;20068;-52
2022/05/27 01:40:39;;;;;;;5.18;4.30;;;;;;;12.46;100.00;96906.72;5057200;28;20071;-53
2022/05/27 01:43:16;;;;;;;5.28;4.18;;;;;;;12.41;100.00;96910.75;5064248;28;20510;-53
2022/05/27 01:45:51;;;;;;;4.35;3.95;;;;;;;12.45;100.00;96914.78;5067993;28;20102;-52
2022/05/27 01:48:23;;;;;;;5.10;4.13;;;;;;;12.44;100.00;96900.72;5064905;28;20068;-54
2022/05/27 01:50:55;;;;;;;5.88;4.30;;;;;;;12.38;100.00;96911.03;5067660;28;20067;-54
2022/05/27 01:53:28;;;;;;;3.90;3.58;;;;;;;12.45;100.00;96901.53;5062134;28;20060;-55
2022/05/27 01:56:01;;;;;;;5.43;4.63;;;;;;;12.46;100.00;96900.59;5060798;28;20623;-54
2022/05/27 01:58:32;;;;;;;5.10;4.18;;;;;;;12.29;100.00;96905.66;5064345;28;20526;-51
2022/05/27 02:01:04;;;;;;;6.55;4.50;;;;;;;12.41;100.00;96910.75;5062740;28;20071;-56
2022/05/27 02:03:36;;;;;;;5.57;4.28;;;;;;;12.38;100.00;96905.75;5069078;28;20071;-51
2022/05/27 02:06:09;;;;;;;6.07;4.57;;;;;;;12.46;100.00;96904.06;5064917;28;20060;-50
2022/05/27 02:08:39;;;;;;;6.40;4.38;;;;;;;12.33;100.00;96903.56;5063241;28;20096;-53
2022/05/27 02:11:12;;;;;;;4.78;4.38;;;;;;;12.49;100.00;96908.22;5066700;28;20681;-54
2022/05/27 02:13:42;;;;;;;5.20;4.20;;;;;;;12.48;100.00;96906.56;5065529;28;20075;-50
2022/05/27 02:16:17;;;;;;;6.53;4.47;;;;;;;12.48;100.00;96910.03;5066734;28;20054;-54
2022/05/27 02:18:47;;;;;;;5.60;4.25;;;;;;;12.56;100.00;96910.16;5060611;28;20091;-48
2022/05/27 02:21:21;;;;;;;6.25;3.97;;;;;;;12.60;100.00;96905.41;5068338;28;20079;-51
2022/05/27 02:23:53;;;;;;;6.25;4.50;;;;;;;12.69;100.00;96906.31;5065097;28;20431;-53
2022/05/27 02:26:25;;;;;;;6.28;4.13;;;;;;;12.71;100.00;96907.03;5065765;28;20064;-51
2022/05/27 02:28:58;;;;;;;5.13;3.85;;;;;;;12.86;100.00;96905.53;5062870;28;20089;-51
2022/05/27 02:31:31;;;;;;;4.78;4.00;;;;;;;12.81;100.00;96905.97;5064761;28;20060;-51
2022/05/27 02:37:04;;;;;;;6.68;4.40;;;;;;;13.11;100.00;96897.84;4997962;28;20498;-51
2022/05/27 02:39:33;;;;;;;7.82;3.90;;;;;;;13.01;100.00;96898.78;5049536;28;20099;-52
2022/05/27 02:42:09;;;;;;;6.45;3.80;;;;;;;13.25;100.00;96905.34;5062757;28;20079;-55
2022/05/27 02:44:43;;;;;;;4.65;3.72;;;;;;;13.25;100.00;96895.56;5064197;28;20110;-50
2022/05/27 02:47:16;;;;;;;5.55;3.92;;;;;;;13.21;100.00;96899.47;5064410;28;20064;-51
2022/05/27 02:49:50;;;;;;;4.68;3.60;;;;;;;13.35;100.00;96887.56;5065014;28;20198;-53
2022/05/27 02:52:26;;;;;;;4.05;3.47;;;;;;;13.38;100.00;96891.69;5062094;28;20063;-52
2022/05/27 02:54:57;;;;;;;4.90;3.50;;;;;;;13.41;100.00;96886.09;5065540;28;20068;-51
2022/05/27 02:57:29;;;;;;;4.20;3.80;;;;;;;13.47;100.00;96881.03;5066829;28;20441;-51
2022/05/27 02:59:58;;;;;;;4.85;3.75;;;;;;;13.43;100.00;96887.63;5066339;28;20138;-52
2022/05/27 03:02:28;;;;;;;4.93;3.80;;;;;;;13.57;100.00;96886.25;5067327;28;20064;-47
2022/05/27 03:04:58;;;;;;;4.33;3.70;;;;;;;13.53;100.00;96888.38;5066620;28;20079;-49
2022/05/27 03:07:35;;;;;;;6.00;3.83;;;;;;;13.58;100.00;96879.97;5065501;28;20499;-49
2022/05/27 03:10:24;;;;;;;3.90;3.50;;;;;;;13.58;100.00;96882.63;5059517;28;20083;-51
2022/05/27 03:13:02;;;;;;;4.00;3.60;;;;;;;13.50;100.00;96886.03;5066225;28;20075;-49
2022/05/27 03:15:37;;;;;;;7.10;3.55;;;;;;;13.73;100.00;96882.91;5062815;28;20543;-51
2022/05/27 03:18:17;;;;;;;5.53;3.10;;;;;;;13.71;100.00;96879.56;5064583;28;20091;-54
2022/05/27 03:20:49;;;;;;;3.65;3.20;;;;;;;13.66;100.00;96884.50;5062878;28;20502;-49
2022/05/27 03:23:36;;;;;;;3.58;3.25;;;;;;;13.74;100.00;96874.81;5064848;28;20086;-48
2022/05/27 03:26:09;;;;;;;4.57;3.10;;;;;;;13.83;100.00;96882.81;5065335;28;20071;-52
2022/05/27 03:28:41;;;;;;;4.80;3.22;;;;;;;13.93;100.00;96884.38;5062966;28;20118;-53
2022/05/27 03:31:14;;;;;;;5.10;3.10;;;;;;;13.93;100.00;96887.03;5063810;28;20092;-50
2022/05/27 03:33:48;;;;;;;4.53;3.47;;;;;;;14.05;100.00;96878.84;5063141;28;20060;-52
2022/05/27 03:36:19;;;;;;;4.22;3.03;;;;;;;13.95;100.00;96886.88;5064751;28;20064;-54
2022/05/27 03:38:53;;;;;;;3.08;2.72;;;;;;;14.02;100.00;96885.28;5061606;28;20076;-50
2022/05/27 03:41:27;;;;;;;4.78;2.70;;;;;;;13.92;100.00;96887.19;5062382;28;20439;-54
2022/05/27 03:43:55;;;;;;;5.95;3.20;;;;;;;14.07;100.00;96893.56;5060975;28;20461;-56
2022/05/27 03:46:29;;;;;;;3.53;2.80;;;;;;;14.14;100.00;96893.78;5057751;28;20075;-48
2022/05/27 03:48:59;;;;;;;4.35;3.20;;;;;;;14.19;100.00;96887.03;5061193;28;20075;-51
2022/05/27 03:51:30;;;;;;;5.68;3.03;;;;;;;14.30;100.00;96877.16;5060269;28;20079;-54
2022/05/27 03:54:05;;;;;;;3.40;2.80;;;;;;;14.22;100.00;96886.72;5054811;28;20446;-51
2022/05/27 03:56:36;;;;;;;3.40;2.92;;;;;;;14.35;100.00;96883.66;5061415;28;20064;-47
2022/05/27 03:59:05;;;;;;;3.40;2.50;;;;;;;14.30;100.00;96880.63;5052322;28;20080;-55
2022/05/27 04:01:35;;;;;;;3.08;2.63;;;;;;;14.46;100.00;96878.06;5056136;28;20447;-53
2022/05/27 04:04:07;;;;;;;5.70;2.97;;;;;;;14.53;100.00;96880.13;5059999;28;21052;-50
2022/05/27 04:06:35;;;;;;;4.78;2.47;;;;;;;14.47;100.00;96881.53;5054668;28;20494;-52
2022/05/27 04:09:04;;;;;;;4.35;2.85;;;;;;;14.65;100.00;96884.97;5060365;28;20087;-52
2022/05/27 04:11:32;;;;;;;5.55;2.90;;;;;;;14.71;100.00;96880.84;5059951;28;20061;-51
2022/05/27 04:14:01;;;;;;;4.57;2.45;;;;;;;14.72;100.00;96874.56;5061445;28;20072;-54
2022/05/27 04:16:29;;;;;;;5.93;2.70;;;;;;;14.74;100.00;96880.53;5062343;28;20074;-50
2022/05/27 04:18:58;;;;;;;3.50;2.35;;;;;;;14.74;100.00;96880.53;5059973;28;20126;-52
2022/05/27 04:21:27;;;;;;;2.53;2.20;;;;;;;14.79;100.00;96874.75;5061179;28;20080;-56
2022/05/27 04:23:56;;;;;;;4.15;2.65;;;;;;;14.92;100.00;96872.47;5055921;28;20068;-58
2022/05/27 04:26:26;;;;;;;3.25;2.10;;;;;;;14.97;100.00;96870.16;5061139;28;20068;-48
2022/05/27 04:28:54;;;;;;;3.75;2.47;;;;;;;15.14;100.00;96868.34;5054911;28;20076;-49
2022/05/27 04:31:23;;;;;;;3.28;2.28;;;;;;;15.27;100.00;96868.72;5058507;28;20072;-50
2022/05/27 04:33:51;;;;;;;4.75;2.30;;;;;;;15.24;100.00;96857.59;5057786;28;20064;-51
2022/05/27 04:36:20;;;;;;;3.03;2.10;;;;;;;15.23;100.00;96863.91;5058912;28;20075;-57
2022/05/27 04:38:49;;;;;;;4.75;2.35;;;;;;;15.28;100.00;96869.53;5062586;28;20060;-51
2022/05/27 04:41:18;;;;;;;3.45;2.28;;;;;;;15.22;100.00;96867.56;5060939;28;20613;-52
2022/05/27 04:43:46;;;;;;;3.38;2.28;;;;;;;15.24;100.00;96871.69;5061994;28;20075;-51
2022/05/27 04:46:14;;;;;;;3.95;2.10;;;;;;;15.19;100.00;96871.38;5058664;28;20131;-51
2022/05/27 04:48:43;;;;;;;3.30;2.25;;;;;;;15.25;100.00;96870.72;5060477;28;20065;-56
2022/05/27 04:51:11;;;;;;;5.30;2.20;;;;;;;15.21;100.00;96872.06;5059412;28;20075;-51
2022/05/27 04:53:40;;;;;;;3.53;2.50;;;;;;;15.53;100.00;96865.94;5058020;28;20071;-55
2022/05/27 04:56:10;;;;;;;4.45;2.35;;;;;;;15.60;100.00;96860.78;5063673;28;20064;-49
2022/05/27 04:58:38;;;;;;;4.25;2.30;;;;;;;15.73;100.00;96862.97;5059866;28;20110;-51
2022/05/27 05:01:06;;;;;;;4.40;2.25;;;;;;;15.79;100.00;96865.78;5061079;28;20095;-51
2022/05/27 05:03:35;;;;;;;3.80;2.15;;;;;;;15.83;100.00;96859.16;5060644;28;20072;-49
2022/05/27 05:06:03;;;;;;;3.47;3.00;;;;;;;16.93;100.00;96856.69;5059608;28;20052;-55
2022/05/27 05:08:33;;;;;;;6.20;3.40;;;;;;;18.56;100.00;96843.81;5062578;28;20492;-50
2022/05/27 05:11:02;;;;;;;5.60;2.90;;;;;;;19.37;100.00;96825.00;5063886;28;20082;-52
2022/05/27 05:13:33;;;;;;;4.65;2.80;;;;;;;18.47;100.00;96834.22;5067158;28;20474;-54
2022/05/27 05:16:03;;;;;;;4.50;2.88;;;;;;;18.96;100.00;96834.47;5064041;28;20539;-48
2022/05/27 05:18:31;;;;;;;6.72;2.58;;;;;;;19.11;100.00;96834.44;5065963;28;20181;-53
2022/05/27 05:21:00;;;;;;;2.53;2.20;;;;;;;18.17;100.00;96838.72;5066843;28;20056;-49
2022/05/27 05:23:28;;;;;;;3.38;2.30;;;;;;;18.13;100.00;96848.94;5067393;28;20076;-49
2022/05/27 05:25:57;;;;;;;3.53;2.70;;;;;;;18.43;100.00;96852.47;5066172;28;20075;-58
2022/05/27 05:28:25;;;;;;;3.05;2.00;;;;;;;17.63;100.00;96861.03;5065355;28;20076;-49
2022/05/27 05:30:55;;;;;;;2.88;1.80;;;;;;;17.15;100.00;96852.38;5065221;28;20137;-49
2022/05/27 05:33:23;;;;;;;2.88;2.65;;;;;;;17.89;100.00;96843.84;5061908;28;20073;-50
2022/05/27 05:35:51;;;;;;;3.50;2.60;;;;;;;18.62;100.00;96842.25;5069105;28;20076;-54
2022/05/27 05:38:19;;;;;;;3.53;2.42;;;;;;;17.78;100.00;96839.78;5071031;28;20080;-51
2022/05/27 05:40:48;;;;;;;2.83;2.00;;;;;;;17.69;100.00;96846.19;5064181;28;20052;-47
2022/05/27 05:43:16;;;;;;;2.63;2.03;;;;;;;17.43;100.00;96846.53;5071136;28;20139;-51
2022/05/27 05:45:45;;;;;;;3.42;1.80;;;;;;;17.61;100.00;96846.22;5071711;28;20095;-44
2022/05/27 05:48:14;;;;;;;2.92;1.90;;;;;;;17.59;100.00;96841.09;5062760;28;20457;-53
2022/05/27 05:50:42;;;;;;;2.40;2.20;;;;;;;17.86;100.00;96841.53;5068012;28;20079;-47
2022/05/27 05:53:13;;;;;;;2.45;1.55;;;;;;;17.68;100.00;96833.84;5067001;28;20471;-53
2022/05/27 05:55:42;;;;;;;2.97;2.13;;;;;;;18.32;100.00;96836.09;5071328;28;20067;-53
2022/05/27 05:58:11;;;;;;;3.50;1.60;;;;;;;17.93;100.00;96834.50;5070381;28;20084;-51
2022/05/27 06:00:39;;;;;;;2.40;1.40;;;;;;;17.84;100.00;96846.25;5067273;28;20075;-51
2022/05/27 06:03:08;;;;;;;2.45;1.95;;;;;;;18.05;100.00;96843.69;5064608;28;20483;-47
2022/05/27 06:05:40;;;;;;;2.22;1.40;;;;;;;17.71;100.00;96836.13;5052741;28;20079;-52
2022/05/27 06:08:08;;;;;;;1.70;1.20;;;;;;;17.69;100.00;96825.66;5062055;28;20079;-49
2022/05/27 06:10:37;;;;;;;3.78;2.13;;;;;;;18.20;100.00;96825.88;5068822;28;20064;-54
2022/05/27 06:13:05;;;;;;;2.45;1.75;;;;;;;18.22;100.00;96836.34;5065698;28;20076;-49
2022/05/27 06:15:35;;;;;;;4.75;2.00;;;;;;;18.24;100.00;96837.00;5065017;28;20102;-49
2022/05/27 06:18:04;;;;;;;2.63;1.35;;;;;;;18.35;100.00;96833.88;5064252;28;20470;-54
2022/05/27 06:20:32;;;;;;;3.22;1.52;;;;;;;17.95;100.00;96829.78;5063965;28;20566;-49
2022/05/27 06:23:05;;;;;;;3.00;1.70;;;;;;;18.12;100.00;96833.94;5063388;28;20071;-50
2022/05/27 06:25:33;;;;;;;3.05;1.50;;;;;;;18.20;100.00;96831.22;5068035;28;20071;-49
2022/05/27 06:36:17;;;;;;;3.65;1.50;;;;;;;18.13;100.00;96827.59;5064467;28;20076;-53
2022/05/27 06:38:46;;;;;;;2.92;1.73;;;;;;;18.09;100.00;96828.97;5062021;28;20079;-52
2022/05/27 06:41:15;;;;;;;3.38;1.83;;;;;;;18.29;100.00;96836.44;5066255;28;20060;-53
2022/05/27 06:43:45;;;;;;;2.35;1.35;;;;;;;18.39;100.00;96829.00;5067913;28;20470;-53
2022/05/27 06:46:14;;;;;;;2.08;1.20;;;;;;;18.25;100.00;96833.31;5065824;28;20091;-48
2022/05/27 06:48:42;;;;;;;4.00;1.85;;;;;;;18.36;100.00;96827.50;5062683;28;20088;-50
2022/05/27 06:51:11;;;;;;;2.83;1.60;;;;;;;18.41;100.00;96818.94;5063484;28;20077;-54
2022/05/27 06:53:39;;;;;;;2.63;1.42;;;;;;;18.52;100.00;96821.16;5059848;28;20064;-53
2022/05/27 06:56:10;;;;;;;3.50;1.10;;;;;;;18.80;100.00;96816.00;5066852;28;20065;-49
2022/05/27 06:58:40;;;;;;;4.57;1.90;;;;;;;18.79;100.00;96819.69;5058603;28;20064;-49
2022/05/27 07:01:08;;;;;;;2.05;1.60;;;;;;;19.24;100.00;96819.56;5065631;28;20108;-49
2022/05/27 07:03:37;;;;;;;2.85;1.70;;;;;;;19.17;100.00;96816.81;5057451;28;20084;-51
2022/05/27 07:06:06;;;;;;;2.95;1.58;;;;;;;19.03;100.00;96813.19;5063399;28;20057;-50
2022/05/27 07:08:35;;;;;;;2.50;1.45;;;;;;;18.83;100.00;96807.59;5059375;28;20068;-50
2022/05/27 07:11:04;;;;;;;5.25;1.70;;;;;;;18.90;100.00;96805.84;5065724;28;20679;-48
2022/05/27 07:13:34;;;;;;;2.15;1.60;;;;;;;19.03;100.00;96812.31;5069834;28;20060;-50
2022/05/27 07:16:04;;;;;;;4.43;1.70;;;;;;;19.24;100.00;96800.84;5057323;28;20075;-54
2022/05/27 07:18:33;;;;;;;2.13;1.60;;;;;;;19.13;100.00;96802.16;5061304;28;21054;-54
2022/05/27 07:21:02;;;;;;;2.45;1.70;;;;;;;19.13;100.00;96797.66;5066149;28;20083;-50
2022/05/27 07:23:31;;;;;;;2.55;1.60;;;;;;;19.56;100.00;96791.47;5064102;28;20565;-55
2022/05/27 07:25:59;;;;;;;3.45;1.70;;;;;;;19.65;100.00;96785.00;5063061;28;20060;-56
2022/05/27 07:28:28;;;;;;;1.70;1.35;;;;;;;19.49;100.00;96790.56;5065488;28;20068;-51
2022/05/27 07:31:01;;;;;;;1.67;1.20;;;;;;;19.40;100.00;96788.03;5064762;28;20091;-56
2022/05/27 07:33:34;;;;;;;3.78;1.38;;;;;;;19.25;100.00;96781.91;5067410;28;20079;-56
2022/05/27 07:36:02;;;;;;;6.00;1.52;;;;;;;19.57;100.00;96779.72;5063164;28;20076;-51
2022/05/27 07:38:31;;;;;;;3.00;1.50;;;;;;;19.78;100.00;96774.38;5069029;28;20064;-48
2022/05/27 07:40:59;;;;;;;4.60;1.40;;;;;;;19.50;100.00;96774.31;5052728;28;20056;-49
2022/05/27 07:43:28;;;;;;;2.30;1.27;;;;;;;19.15;100.00;96779.56;5061521;28;20471;-54
2022/05/27 07:45:58;;;;;;;2.42;1.48;;;;;;;19.55;100.00;96761.22;5063675;28;20087;-49
2022/05/27 07:48:27;;;;;;;1.88;1.20;;;;;;;19.42;100.00;96771.78;5062730;28;20088;-52
2022/05/27 07:50:55;;;;;;;3.40;1.30;;;;;;;19.43;100.00;96766.25;5064610;28;20064;-51
2022/05/27 07:53:23;;;;;;;2.17;1.20;;;;;;;19.41;100.00;96764.81;5064813;28;20056;-56
2022/05/27 07:55:52;;;;;;;4.78;1.45;;;;;;;19.56;100.00;96762.84;5063567;28;20452;-55
2022/05/27 07:58:20;;;;;;;1.80;1.52;;;;;;;19.87;100.00;96772.38;5065818;28;20481;-48
2022/05/27 08:00:49;;;;;;;3.40;1.50;;;;;;;19.97;100.00;96761.34;5060267;28;20095;-50
2022/05/27 08:03:19;;;;;;;1.88;1.58;;;;;;;19.79;100.00;96770.69;5064886;28;20071;-49
2022/05/27 08:05:47;;;;;;;2.45;1.70;;;;;;;20.11;100.00;96768.41;5062603;28;20341;-50
2022/05/27 08:08:18;;;;;;;3.13;1.60;;;;;;;19.90;100.00;96777.34;5061833;28;20071;-47
2022/05/27 08:10:47;;;;;;;2.78;1.80;;;;;;;20.14;100.00;96765.34;5062216;28;21134;-51
2022/05/27 08:13:15;;;;;;;6.18;2.00;;;;;;;20.28;100.00;96768.94;5063091;28;20086;-55
2022/05/27 08:15:44;;;;;;;3.92;1.90;;;;;;;20.54;100.00;96770.91;5064089;28;20083;-52
2022/05/27 08:18:12;;;;;;;2.35;1.73;;;;;;;20.59;100.00;96766.63;5065052;28;20087;-49
2022/05/27 08:20:43;;;;;;;2.85;1.80;;;;;;;20.60;100.00;96768.28;5062834;28;20068;-49
2022/05/27 08:23:11;;;;;;;3.03;1.83;;;;;;;21.17;100.00;96760.81;5063689;28;20764;-49
2022/05/27 08:25:39;;;;;;;2.90;1.50;;;;;;;20.39;100.00;96760.31;5060148;28;20057;-47
2022/05/27 08:28:08;;;;;;;3.67;1.52;;;;;;;20.70;100.00;96761.72;5068452;28;20549;-49
2022/05/27 08:30:39;;;;;;;3.20;1.67;;;;;;;20.57;100.00;96751.78;5065860;28;20481;-49
2022/05/27 08:33:08;;;;;;;2.88;1.50;;;;;;;21.03;100.00;96757.28;5068272;28;20064;-49
2022/05/27 08:38:30;;;;;;;2.20;1.50;;;;;;;20.85;100.00;96751.66;5058363;28;20056;-50
2022/05/27 08:41:34;;;;;;;7.40;1.90;;;;;;;21.46;100.00;96754.25;5061820;28;20053;-56
2022/05/27 08:44:20;;;;;;;3.47;1.60;;;;;;;20.56;100.00;96766.19;4999198;28;20523;-54
2022/05/27 08:46:57;;;;;;;3.45;1.58;;;;;;;20.22;100.00;96753.66;5053601;28;20114;-50
2022/05/27 08:49:30;;;;;;;3.67;1.88;;;;;;;20.73;100.00;96755.97;5062547;28;20052;-50
2022/05/27 08:52:04;;;;;;;2.75;1.83;;;;;;;21.19;100.00;96758.75;5061914;28;20613;-50
2022/05/27 08:54:38;;;;;;;3.65;2.05;;;;;;;21.06;100.00;96754.19;5065409;28;20503;-53
2022/05/27 08:59:55;;;;;;;2.35;1.73;;;;;;;21.22;100.00;96754.81;5061617;28;20072;-48
2022/05/27 09:02:29;;;;;;;2.88;1.67;;;;;;;21.47;100.00;96747.03;5061257;28;20518;-47
2022/05/27 09:05:05;;;;;;;2.92;1.70;;;;;;;21.17;100.00;96743.91;5060930;28;20064;-52
2022/05/27 09:07:40;;;;;;;3.70;1.60;;;;;;;20.91;100.00;96742.81;5060061;28;20120;-51
2022/05/27 09:10:13;;;;;;;2.65;1.70;;;;;;;20.82;100.00;96739.50;5063496;28;20080;-47
2022/05/27 09:12:46;;;;;;;3.00;1.80;;;;;;;20.96;100.00;96737.69;5063244;28;20044;-50
2022/05/27 09:15:26;;;;;;;3.20;1.70;;;;;;;20.91;100.00;96736.63;5062247;28;20064;-51
2022/05/27 09:18:04;;;;;;;2.20;1.38;;;;;;;20.06;100.00;96734.22;5063371;28;20071;-54
2022/05/27 09:20:39;;;;;;;2.85;1.70;;;;;;;20.70;100.00;96740.28;5062149;28;20506;-46
2022/05/27 09:23:17;;;;;;;3.08;1.50;;;;;;;20.85;100.00;96731.06;5062444;28;20522;-58
2022/05/27 09:25:54;;;;;;;1.83;1.40;;;;;;;21.35;100.00;96729.91;5059272;28;20102;-51
2022/05/27 09:28:32;;;;;;;2.58;1.63;;;;;;;21.34;100.00;96721.03;5057765;28;20053;-50
2022/05/27 09:31:01;;;;;;;2.15;1.65;;;;;;;21.06;100.00;96727.38;5063527;28;20079;-48
2022/05/27 09:33:30;;;;;;;2.42;1.35;;;;;;;21.54;100.00;96721.88;5064672;28;20076;-51
2022/05/27 09:36:04;;;;;;;3.17;1.77;;;;;;;22.22;100.00;96726.09;5060988;28;20064;-50
2022/05/27 09:38:34;;;;;;;2.28;1.40;;;;;;;21.53;100.00;96725.56;5062927;28;20064;-49
2022/05/27 09:41:05;;;;;;;2.08;1.63;;;;;;;21.77;100.00;96724.09;5063366;28;20068;-49
2022/05/27 09:43:36;;;;;;;1.98;1.40;;;;;;;21.86;100.00;96730.09;5057019;28;20123;-52
2022/05/27 09:46:06;;;;;;;1.67;1.58;;;;;;;21.98;100.00;96711.47;5048628;28;20049;-47
2022/05/27 09:48:35;;;;;;;;;;;;;;;22.24;100.00;96713.28;5063185;28;20128;-49
2022/05/27 09:51:08;;;;;;;2.42;1.60;;;;;;;21.91;100.00;96710.66;5063432;28;19967;-48
2022/05/27 09:53:40;;;;;;;2.42;1.48;;;;;;;22.50;100.00;96723.09;5059316;28;20065;-51
2022/05/27 09:56:11;;;;;;;2.08;1.35;;;;;;;22.58;100.00;96717.50;5064207;28;20071;-49
2022/05/27 09:58:41;;;;;;;3.00;1.60;;;;;;;22.41;100.00;96714.47;5065215;28;20059;-53
2022/05/27 10:01:28;;;;;;;2.75;1.58;;;;;;;22.55;100.00;96709.03;5064199;28;20467;-49
2022/05/27 10:04:01;;;;;;;4.05;1.90;;;;;;;22.46;100.00;96698.50;5064098;28;20060;-48
2022/05/27 10:06:32;;;;;;;2.83;1.40;;;;;;;22.54;100.00;96705.53;5061067;28;20087;-52
2022/05/27 10:09:02;;;;;;;2.47;1.48;;;;;;;22.48;100.00;96712.56;5062664;28;20526;-50
2022/05/27 10:11:32;;;;;;;3.73;1.80;;;;;;;22.41;100.00;96706.41;5059468;28;20061;-49
2022/05/27 10:14:21;;;;;;;2.35;1.50;;;;;;;22.36;100.00;96694.63;5067102;28;20482;-55
2022/05/27 10:17:09;;;;;;;2.42;1.30;;;;;;;22.65;100.00;96693.28;5068003;28;20625;-51
2022/05/27 10:19:44;;;;;;;3.50;1.30;;;;;;;22.86;100.00;96700.19;5058987;28;20072;-49
2022/05/27 10:22:22;;;;;;;5.38;1.80;;;;;;;22.75;100.00;96690.94;5065233;28;20084;-55
2022/05/27 10:24:57;;;;;;;3.38;1.60;;;;;;;21.96;100.00;96697.44;5064947;28;20079;-52
2022/05/27 10:27:34;;;;;;;1.88;1.40;;;;;;;22.14;100.00;96696.75;5066220;28;20072;-50
2022/05/27 10:30:06;;;;;;;2.25;1.48;;;;;;;23.07;100.00;96691.78;5065520;28;20209;-46
2022/05/27 10:32:40;;;;;;;2.00;1.25;;;;;;;23.48;100.00;96684.22;5060114;28;20347;-48
2022/05/27 10:35:09;;;;;;;;;;;;;;;23.40;100.00;96694.22;5067069;28;20471;-50
2022/05/27 10:37:54;;;;;;;4.28;1.50;;;;;;;23.03;100.00;96682.50;5062962;28;20435;-54
2022/05/27 10:40:33;;;;;;;1.98;1.40;;;;;;;22.19;100.00;96688.91;5062143;28;20083;-48
2022/05/27 10:43:11;;;;;;;5.65;1.50;;;;;;;22.27;100.00;96689.50;5065423;28;20083;-55
2022/05/27 10:45:42;;;;;;;1.83;1.33;;;;;;;22.91;100.00;96676.13;5063741;28;20057;-52
2022/05/27 10:48:25;;;;;;;2.08;1.52;;;;;;;23.04;100.00;96659.13;5063789;28;20470;-51
2022/05/27 10:51:00;;;;;;;2.88;1.40;;;;;;;22.12;100.00;96688.91;5060169;28;20445;-55
2022/05/27 10:53:47;;;;;;;3.70;1.50;;;;;;;22.59;100.00;96678.81;5061290;28;20060;-53
2022/05/27 10:56:27;;;;;;;3.40;1.50;;;;;;;22.44;100.00;96671.03;5061746;28;20077;-49
2022/05/27 11:02:12;;;;;;;3.20;1.42;;;;;;;23.48;100.00;96671.59;5062306;28;20068;-51
2022/05/27 11:05:04;;;;;;;4.75;1.70;;;;;;;23.56;100.00;96665.09;5060644;28;20158;-54
2022/05/27 11:07:39;;;;;;;1.92;1.25;;;;;;;23.67;100.00;96656.28;5062035;28;20632;-50
2022/05/27 11:10:19;;;;;;;3.90;1.33;;;;;;;23.84;100.00;96645.78;5062968;28;20072;-49
2022/05/27 11:15:50;;;;;;;3.70;1.50;;;;;;;23.13;100.00;96653.25;5057231;28;20507;-47
2022/05/27 11:18:30;;;;;;;2.65;1.50;;;;;;;22.84;100.00;96633.16;5066181;28;20082;-52
2022/05/27 11:21:16;;;;;;;2.40;1.60;;;;;;;23.02;100.00;96642.38;5059997;28;20084;-47
2022/05/27 11:23:58;;;;;;;1.95;1.45;;;;;;;23.04;100.00;96634.91;5059437;28;20095;-50
2022/05/27 11:26:33;;;;;;;3.70;1.73;;;;;;;23.57;100.00;96640.66;5063857;28;20407;-48
2022/05/27 11:29:29;;;;;;;2.47;1.33;;;;;;;23.54;100.00;96648.34;5065250;28;20068;-52
2022/05/27 11:32:03;;;;;;;3.35;1.50;;;;;;;23.52;100.00;96640.47;5062123;28;20102;-48
2022/05/27 11:34:33;;;;;;;3.80;1.70;;;;;;;23.25;100.00;96639.91;5065052;28;20515;-50
2022/05/27 11:37:19;;;;;;;3.13;1.48;;;;;;;23.18;100.00;96628.38;5056240;28;20064;-53
2022/05/27 11:40:08;;;;;;;4.63;1.60;;;;;;;23.42;100.00;96630.22;5065657;28;20068;-47
2022/05/27 11:42:53;;;;;;;2.75;1.42;;;;;;;23.18;100.00;96623.81;5064889;28;20075;-52
2022/05/27 11:45:24;;;;;;;4.60;1.42;;;;;;;22.43;100.00;96623.69;5065274;28;20080;-49
2022/05/27 11:47:59;;;;;;;3.15;1.75;;;;;;;22.96;100.00;96611.81;5064734;28;20076;-50
2022/05/27 11:50:54;;;;;;;2.78;1.77;;;;;;;23.46;100.00;96614.44;5059824;28;20065;-53
2022/05/27 11:53:31;;;;;;;3.22;1.60;;;;;;;22.40;100.00;96618.78;5060662;28;20068;-53
2022/05/27 11:56:06;;;;;;;2.85;1.48;;;;;;;22.86;100.00;96606.88;5061089;28;20064;-53
2022/05/27 11:58:43;;;;;;;4.10;1.33;;;;;;;22.90;100.00;96602.69;5059358;28;20072;-49
2022/05/27 12:01:18;;;;;;;2.20;1.50;;;;;;;23.17;100.00;96597.97;5061698;28;20083;-49
2022/05/27 12:03:52;;;;;;;4.10;2.00;;;;;;;23.44;100.00;96603.91;5062945;28;20518;-53
2022/05/27 12:06:25;;;;;;;3.03;1.67;;;;;;;23.32;100.00;96604.84;5063478;28;20577;-52
2022/05/27 12:08:56;;;;;;;3.03;1.58;;;;;;;23.38;100.00;96599.41;5057843;28;20590;-53
2022/05/27 12:11:29;;;;;;;2.70;1.90;;;;;;;23.36;100.00;96606.88;5062591;28;20071;-58
2022/05/27 12:14:03;;;;;;;3.92;1.90;;;;;;;23.37;100.00;96594.28;5064088;28;20071;-50